Time;durP1;ratioP1;P1;durP2;ratioP2;P2;SDS_P1;SDS_P2;PMS_P1;PMS_P2;Temp;Humidity;BMP_temperature;BMP_pressure;BME280_temperature;BME280_humidity;BME280_pressure;Samples;Min_cycle;Max_cycle;Signal;HPM_P1;HPM_P2
2022/02/02 00:00:14;;;;;;;11.40;1.75;;;;;;;;;;5072387;28;20027;-50
2022/02/02 00:02:51;;;;;;;17.77;2.55;;;;;;;;;;5069457;28;20074;-50
2022/02/02 00:05:41;;;;;;;16.70;3.13;;;;;;;;;;5071485;28;20090;-51
2022/02/02 00:08:17;;;;;;;15.27;3.20;;;;;;;;;;5061405;28;20025;-54
2022/02/02 00:13:40;;;;;;;22.52;2.88;;;;;;;;;;5065432;28;20038;-51
2022/02/02 00:16:21;;;;;;;11.88;2.35;;;;;;;;;;5064803;28;20032;-53
2022/02/02 00:19:02;;;;;;;20.73;3.40;;;;;;;;;;5072331;28;20024;-50
2022/02/02 00:21:50;;;;;;;14.02;1.90;;;;;;;;;;5071477;28;20387;-51
2022/02/02 00:24:32;;;;;;;17.05;3.13;;;;;;;;;;5069603;28;20075;-49
2022/02/02 00:27:02;;;;;;;18.65;2.53;;;;;;;;;;5071703;28;20028;-50
2022/02/02 00:29:35;;;;;;;15.50;2.10;;;;;;;;;;5078074;28;20494;-51
2022/02/02 00:32:19;;;;;;;8.57;2.10;;;;;;;;;;5065920;28;20028;-50
2022/02/02 00:34:46;;;;;;;21.20;2.35;;;;;;;;;;5071374;28;20028;-52
2022/02/02 00:37:14;;;;;;;13.13;2.47;;;;;;;;;;5071989;28;20561;-52
2022/02/02 00:39:40;;;;;;;16.92;3.22;;;;;;;;;;5069421;28;20036;-49
2022/02/02 00:42:06;;;;;;;15.07;3.67;;;;;;;;;;5069787;28;20025;-52
2022/02/02 00:44:34;;;;;;;14.38;2.40;;;;;;;;;;5066064;28;20034;-51
2022/02/02 00:47:00;;;;;;;12.65;2.85;;;;;;;;;;5059223;28;20040;-50
2022/02/02 00:49:26;;;;;;;17.40;2.58;;;;;;;;;;5071946;28;20024;-52
2022/02/02 00:51:57;;;;;;;19.00;2.90;;;;;;;;;;5060249;28;20536;-49
2022/02/02 00:54:24;;;;;;;16.20;3.30;;;;;;;;;;5070408;28;20108;-53
2022/02/02 00:56:50;;;;;;;18.13;2.92;;;;;;;;;;5071976;28;20456;-49
2022/02/02 00:59:16;;;;;;;14.05;2.80;;;;;;;;;;5071425;28;20029;-48
2022/02/02 01:01:43;;;;;;;15.93;3.28;;;;;;;;;;5064785;28;20396;-49
2022/02/02 01:04:09;;;;;;;12.60;2.30;;;;;;;;;;5063867;28;20442;-48
2022/02/02 01:06:40;;;;;;;13.38;3.05;;;;;;;;;;5068703;28;20041;-50
2022/02/02 01:15:02;;;;;;;15.65;1.90;;;;;;;;;;5069977;28;20036;-50
2022/02/02 01:19:42;;;;;;;14.23;2.15;;;;;;;;;;5071555;28;20496;-49
2022/02/02 01:30:06;;;;;;;26.63;4.43;;;;;;;;;;5066103;28;20059;-49
2022/02/02 01:32:32;;;;;;;19.23;2.85;;;;;;;;;;5068920;28;20035;-48
2022/02/02 01:34:58;;;;;;;16.75;2.38;;;;;;;;;;5074637;28;20435;-49
2022/02/02 01:37:25;;;;;;;14.45;2.72;;;;;;;;;;5071459;28;20036;-47
2022/02/02 01:39:58;;;;;;;17.20;2.53;;;;;;;;;;5074906;28;20023;-49
2022/02/02 01:42:29;;;;;;;16.77;2.97;;;;;;;;;;5074095;28;20085;-48
2022/02/02 01:45:04;;;;;;;22.27;3.22;;;;;;;;;;5073031;28;20028;-48
2022/02/02 01:47:38;;;;;;;22.73;3.08;;;;;;;;;;5075001;28;20020;-49
2022/02/02 01:50:16;;;;;;;20.45;2.55;;;;;;;;;;5073170;28;20039;-48
2022/02/02 01:55:38;;;;;;;19.42;2.72;;;;;;;;;;5069359;28;20051;-48
2022/02/02 01:58:17;;;;;;;19.33;3.60;;;;;;;;;;5074466;28;20071;-48
2022/02/02 02:00:44;;;;;;;13.02;2.65;;;;;;;;;;5075132;28;20089;-47
2022/02/02 02:03:10;;;;;;;21.05;2.78;;;;;;;;;;5074527;28;20021;-47
2022/02/02 02:05:35;;;;;;;15.05;2.03;;;;;;;;;;5072923;28;20040;-47
2022/02/02 02:08:01;;;;;;;10.88;2.35;;;;;;;;;;5074552;28;20453;-50
2022/02/02 02:10:27;;;;;;;17.52;2.30;;;;;;;;;;5068303;28;20039;-46
2022/02/02 02:12:59;;;;;;;12.50;2.95;;;;;;;;;;5066385;28;20033;-47
2022/02/02 02:15:31;;;;;;;17.98;2.67;;;;;;;;;;5073392;28;20077;-47
2022/02/02 02:17:58;;;;;;;16.20;3.63;;;;;;;;;;5074616;28;20419;-50
2022/02/02 02:20:24;;;;;;;18.95;2.95;;;;;;;;;;5068284;28;20544;-48
2022/02/02 02:22:50;;;;;;;16.55;2.35;;;;;;;;;;5072369;28;20555;-52
2022/02/02 02:25:24;;;;;;;19.77;3.65;;;;;;;;;;5066587;28;20371;-49
2022/02/02 02:27:50;;;;;;;;;;;;;;;;;;5074164;28;20111;-48
2022/02/02 02:30:43;;;;;;;26.10;2.72;;;;;;;;;;5073958;28;20330;-47
2022/02/02 02:38:45;;;;;;;18.08;3.22;;;;;;;;;;5074011;28;20417;-49
2022/02/02 02:57:59;;;;;;;21.05;2.95;;;;;;;;;;5074032;28;20042;-51
2022/02/02 03:00:49;;;;;;;16.42;3.05;;;;;;;;;;5077120;28;20040;-48
2022/02/02 03:30:14;;;;;;;36.53;4.13;;;;;;;;;;5062216;28;20436;-49
2022/02/02 03:49:49;;;;;;;21.98;3.50;;;;;;;;;;5065741;28;20067;-48
2022/02/02 03:53:02;;;;;;;19.83;3.33;;;;;;;;;;5058931;28;20083;-47
2022/02/02 03:55:41;;;;;;;19.77;3.03;;;;;;;;;;5060843;28;20032;-47
2022/02/02 03:58:21;;;;;;;20.95;3.42;;;;;;;;;;5072259;28;20472;-49
2022/02/02 04:03:46;;;;;;;14.52;2.95;;;;;;;;;;5056528;28;20039;-48
2022/02/02 04:06:18;;;;;;;16.55;2.72;;;;;;;;;;5080015;28;20064;-47
2022/02/02 04:08:45;;;;;;;22.80;4.95;;;;;;;;;;5062972;28;20369;-49
2022/02/02 04:11:27;;;;;;;20.58;3.65;;;;;;;;;;5068597;28;20035;-47
2022/02/02 04:14:53;;;;;;;20.42;2.90;;;;;;;;;;5066317;28;20040;-50
2022/02/02 04:58:18;;;;;;;16.48;2.78;;;;;;;;;;5028718;28;20022;-47
2022/02/02 05:09:14;;;;;;;14.88;3.35;;;;;;;;;;5054990;28;20036;-50
2022/02/02 05:17:14;;;;;;;15.23;2.65;;;;;;;;;;5075882;28;20112;-49
2022/02/02 05:20:08;;;;;;;17.63;3.55;;;;;;;;;;5063569;28;20036;-48
2022/02/02 05:26:36;;;;;;;16.70;3.45;;;;;;;;;;5075682;28;20128;-47
2022/02/02 05:50:30;;;;;;;9.55;2.17;;;;;;;;;;5071966;28;20051;-46
2022/02/02 05:52:57;;;;;;;22.45;3.35;;;;;;;;;;5067079;28;20059;-46
2022/02/02 05:55:23;;;;;;;18.83;3.78;;;;;;;;;;5074694;28;20035;-46
2022/02/02 05:57:50;;;;;;;18.17;2.53;;;;;;;;;;5075057;28;20035;-47
2022/02/02 06:00:16;;;;;;;16.65;3.22;;;;;;;;;;5086661;28;20036;-47
2022/02/02 06:02:43;;;;;;;12.80;2.35;;;;;;;;;;5079622;28;20020;-47
2022/02/02 06:05:09;;;;;;;12.82;2.33;;;;;;;;;;5072795;28;20120;-47
2022/02/02 06:07:41;;;;;;;17.90;4.38;;;;;;;;;;5075061;28;20035;-48
2022/02/02 06:10:09;;;;;;;13.48;2.75;;;;;;;;;;5074790;28;20372;-47
2022/02/02 06:12:35;;;;;;;14.82;2.20;;;;;;;;;;5073928;28;20552;-49
2022/02/02 06:15:12;;;;;;;9.88;2.25;;;;;;;;;;5074534;28;20017;-48
2022/02/02 06:17:46;;;;;;;18.02;2.90;;;;;;;;;;5069987;28;20040;-48
2022/02/02 06:20:12;;;;;;;21.23;2.60;;;;;;;;;;5068030;28;20100;-47
2022/02/02 06:23:04;;;;;;;13.10;2.80;;;;;;;;;;5063669;28;20063;-49
2022/02/02 06:25:32;;;;;;;26.98;3.38;;;;;;;;;;5058066;28;20047;-49
2022/02/02 06:28:02;;;;;;;25.20;3.35;;;;;;;;;;5072985;28;20020;-48
2022/02/02 06:30:29;;;;;;;14.27;2.40;;;;;;;;;;5061429;28;20071;-50
2022/02/02 06:33:01;;;;;;;12.52;2.88;;;;;;;;;;5066801;28;20042;-48
2022/02/02 06:35:27;;;;;;;17.30;2.53;;;;;;;;;;5072360;28;20024;-47
2022/02/02 06:37:53;;;;;;;14.35;2.90;;;;;;;;;;5073951;28;20025;-48
2022/02/02 06:40:19;;;;;;;18.73;2.85;;;;;;;;;;5074222;28;20432;-46
2022/02/02 06:42:45;;;;;;;20.88;2.33;;;;;;;;;;5066215;28;20039;-48
2022/02/02 06:45:12;;;;;;;10.55;2.40;;;;;;;;;;5071264;28;20104;-49
2022/02/02 06:47:39;;;;;;;14.20;3.40;;;;;;;;;;5072806;28;20052;-51
2022/02/02 06:50:11;;;;;;;12.20;2.42;;;;;;;;;;5060213;28;20024;-47
2022/02/02 06:52:55;;;;;;;14.85;2.13;;;;;;;;;;5071494;28;20053;-47
2022/02/02 06:55:29;;;;;;;15.10;2.88;;;;;;;;;;5066210;28;20039;-46
2022/02/02 06:58:20;;;;;;;18.65;3.15;;;;;;;;;;5069577;28;20042;-49
2022/02/02 07:03:42;;;;;;;18.02;2.92;;;;;;;;;;5059671;28;20098;-47
2022/02/02 07:06:52;;;;;;;18.77;2.75;;;;;;;;;;5063841;28;20038;-46
2022/02/02 07:09:28;;;;;;;17.67;3.47;;;;;;;;;;5058799;28;20033;-52
2022/02/02 07:25:32;;;;;;;17.23;2.22;;;;;;;;;;5066154;28;20036;-50
2022/02/02 07:28:15;;;;;;;12.88;2.35;;;;;;;;;;5061093;28;20067;-47
2022/02/02 07:30:49;;;;;;;16.00;2.30;;;;;;;;;;5069374;28;20020;-47
2022/02/02 07:33:21;;;;;;;13.65;2.08;;;;;;;;;;5070992;28;20036;-49
2022/02/02 07:35:56;;;;;;;14.88;2.58;;;;;;;;;;5071592;28;20222;-46
2022/02/02 07:38:24;;;;;;;12.70;1.88;;;;;;;;;;5064221;28;20357;-48
2022/02/02 07:40:51;;;;;;;10.43;2.65;;;;;;;;;;5067675;28;20502;-47
2022/02/02 07:43:30;;;;;;;18.10;2.75;;;;;;;;;;5070639;28;20116;-47
2022/02/02 07:46:03;;;;;;;8.80;2.58;;;;;;;;;;5074240;28;20035;-47
2022/02/02 07:48:39;;;;;;;9.73;1.88;;;;;;;;;;5072220;28;20522;-47
2022/02/02 07:51:05;;;;;;;12.48;2.47;;;;;;;;;;5068672;28;20155;-49
2022/02/02 07:53:40;;;;;;;13.75;2.08;;;;;;;;;;5069554;28;20483;-47
2022/02/02 07:56:12;;;;;;;12.23;1.70;;;;;;;;;;5070258;28;20055;-47
2022/02/02 07:58:41;;;;;;;7.97;1.75;;;;;;;;;;5062301;28;20029;-47
2022/02/02 08:01:08;;;;;;;7.50;2.10;;;;;;;;;;5070457;28;20025;-47
2022/02/02 08:03:39;;;;;;;7.93;2.75;;;;;;;;;;5063756;28;20033;-47
2022/02/02 08:06:07;;;;;;;9.13;1.85;;;;;;;;;;5062968;28;20037;-46
2022/02/02 08:08:35;;;;;;;6.65;1.60;;;;;;;;;;5060451;28;20123;-50
2022/02/02 08:11:06;;;;;;;6.35;1.48;;;;;;;;;;5064906;28;20032;-50
2022/02/02 08:13:42;;;;;;;11.20;1.60;;;;;;;;;;5064592;28;20377;-46
2022/02/02 08:16:11;;;;;;;11.95;2.63;;;;;;;;;;5059778;28;20032;-49
2022/02/02 08:18:40;;;;;;;8.10;1.77;;;;;;;;;;5068563;28;20077;-49
2022/02/02 08:21:06;;;;;;;10.07;2.33;;;;;;;;;;5071972;28;20423;-48
2022/02/02 08:23:32;;;;;;;9.73;1.60;;;;;;;;;;5072008;28;20029;-47
2022/02/02 08:25:59;;;;;;;9.70;1.73;;;;;;;;;;5064646;28;20028;-46
2022/02/02 08:28:25;;;;;;;8.25;1.90;;;;;;;;;;5068990;28;20017;-49
2022/02/02 08:30:51;;;;;;;13.88;1.65;;;;;;;;;;5068318;28;20021;-47
2022/02/02 08:33:22;;;;;;;7.07;1.63;;;;;;;;;;5066302;28;20021;-47
2022/02/02 08:35:53;;;;;;;9.75;1.90;;;;;;;;;;5070853;28;20082;-47
2022/02/02 08:38:36;;;;;;;6.90;1.88;;;;;;;;;;5068429;28;20142;-47
2022/02/02 08:41:09;;;;;;;6.95;1.65;;;;;;;;;;5066678;28;20513;-47
2022/02/02 08:46:37;;;;;;;7.10;1.00;;;;;;;;;;5056012;28;20036;-50
2022/02/02 08:49:06;;;;;;;8.70;1.50;;;;;;;;;;5069128;28;20051;-48
2022/02/02 08:51:38;;;;;;;10.85;1.80;;;;;;;;;;5069232;28;20392;-47
2022/02/02 08:54:23;;;;;;;8.48;1.73;;;;;;;;;;5076092;28;20020;-49
2022/02/02 09:02:03;;;;;;;11.48;1.23;;;;;;;;;;5069352;28;20107;-48
2022/02/02 09:07:14;;;;;;;9.00;1.38;;;;;;;;;;5073246;28;20570;-47
2022/02/02 09:09:53;;;;;;;9.88;1.55;;;;;;;;;;5066243;28;20029;-47
2022/02/02 09:21:33;;;;;;;5.55;1.33;;;;;;;;;;5070070;28;20101;-51
2022/02/02 09:34:08;;;;;;;8.95;1.13;;;;;;;;;;5077530;28;20462;-48
2022/02/02 09:36:37;;;;;;;10.13;1.25;;;;;;;;;;5079696;28;20086;-47
2022/02/02 09:39:13;;;;;;;7.43;1.35;;;;;;;;;;5068426;28;20028;-46
2022/02/02 09:41:47;;;;;;;9.27;1.40;;;;;;;;;;5084077;28;20044;-47
2022/02/02 09:44:16;;;;;;;7.32;1.45;;;;;;;;;;5069853;28;20032;-47
2022/02/02 09:49:23;;;;;;;11.85;1.30;;;;;;;;;;5060805;28;20127;-46
2022/02/02 09:51:57;;;;;;;17.58;1.58;;;;;;;;;;5063749;28;20499;-46
2022/02/02 09:54:40;;;;;;;5.57;1.17;;;;;;;;;;5070794;28;20036;-46
2022/02/02 09:57:44;;;;;;;5.28;1.63;;;;;;;;;;5065418;28;20037;-47
2022/02/02 10:00:32;;;;;;;9.05;1.38;;;;;;;;;;5069262;28;20036;-47
2022/02/02 10:05:45;;;;;;;9.80;1.42;;;;;;;;;;5063296;28;20238;-47
2022/02/02 10:08:47;;;;;;;;;;;;;;;;;;5070897;28;20056;-47
2022/02/02 10:14:03;;;;;;;6.45;1.55;;;;;;;;;;5074131;28;20031;-47
2022/02/02 10:16:29;;;;;;;11.02;1.70;;;;;;;;;;5059198;28;20033;-48
2022/02/02 10:19:11;;;;;;;10.15;1.92;;;;;;;;;;5080954;28;20029;-48
2022/02/02 10:21:37;;;;;;;10.50;1.30;;;;;;;;;;5074587;28;20064;-48
2022/02/02 10:24:04;;;;;;;17.58;1.52;;;;;;;;;;5074048;28;20063;-47
2022/02/02 10:26:29;;;;;;;4.38;1.20;;;;;;;;;;5076849;28;20027;-46
2022/02/02 10:29:06;;;;;;;5.75;1.20;;;;;;;;;;5081639;28;20445;-48
2022/02/02 10:31:39;;;;;;;6.72;1.77;;;;;;;;;;5067967;28;20046;-47
2022/02/02 10:34:09;;;;;;;11.93;1.52;;;;;;;;;;5064777;28;20024;-48
2022/02/02 10:36:35;;;;;;;5.65;1.30;;;;;;;;;;5073993;28;20086;-47
2022/02/02 10:39:09;;;;;;;11.07;1.65;;;;;;;;;;5067591;28;20029;-48
2022/02/02 10:41:48;;;;;;;3.78;1.52;;;;;;;;;;5067930;28;20055;-47
2022/02/02 10:44:23;;;;;;;5.55;1.50;;;;;;;;;;5069846;28;20033;-47
2022/02/02 10:46:58;;;;;;;9.77;1.30;;;;;;;;;;5075389;28;20060;-47
2022/02/02 10:52:04;;;;;;;12.20;1.88;;;;;;;;;;5063654;28;20135;-47
2022/02/02 10:57:31;;;;;;;4.03;1.35;;;;;;;;;;5083605;28;20059;-47
2022/02/02 11:00:13;;;;;;;7.95;1.48;;;;;;;;;;5069618;28;20036;-47
2022/02/02 11:08:10;;;;;;;9.93;1.55;;;;;;;;;;5066943;28;20043;-47
2022/02/02 11:10:36;;;;;;;4.03;1.42;;;;;;;;;;5071048;28;20036;-47
2022/02/02 11:13:02;;;;;;;5.78;1.00;;;;;;;;;;5072611;28;20029;-47
2022/02/02 11:15:38;;;;;;;4.57;1.00;;;;;;;;;;5072825;28;20032;-48
2022/02/02 11:18:08;;;;;;;10.30;1.10;;;;;;;;;;5070136;28;20108;-47
2022/02/02 11:20:37;;;;;;;8.52;1.70;;;;;;;;;;5060655;28;20031;-48
2022/02/02 11:23:05;;;;;;;9.38;1.85;;;;;;;;;;5070385;28;20029;-47
2022/02/02 11:25:33;;;;;;;10.00;2.30;;;;;;;;;;5066222;28;20024;-48
2022/02/02 11:28:00;;;;;;;5.68;1.02;;;;;;;;;;5072883;28;20032;-47
2022/02/02 11:30:27;;;;;;;6.93;1.10;;;;;;;;;;5063547;28;20029;-47
2022/02/02 11:32:56;;;;;;;11.00;1.30;;;;;;;;;;5071210;28;20495;-47
2022/02/02 11:35:29;;;;;;;5.88;1.00;;;;;;;;;;5071322;28;20458;-46
2022/02/02 11:37:57;;;;;;;3.70;1.20;;;;;;;;;;5069134;28;20033;-47
2022/02/02 11:40:23;;;;;;;9.40;1.88;;;;;;;;;;5072351;28;20035;-47
2022/02/02 11:42:57;;;;;;;4.28;1.00;;;;;;;;;;5072076;28;20099;-46
2022/02/02 11:45:36;;;;;;;3.42;1.05;;;;;;;;;;5065087;28;20033;-47
2022/02/02 11:48:08;;;;;;;5.60;1.40;;;;;;;;;;5083174;28;20070;-47
2022/02/02 11:50:51;;;;;;;6.90;1.30;;;;;;;;;;5067188;28;20389;-47
2022/02/02 11:53:35;;;;;;;4.57;1.20;;;;;;;;;;5068917;28;20048;-47
2022/02/02 11:56:04;;;;;;;9.40;1.15;;;;;;;;;;5067790;28;20084;-46
2022/02/02 11:58:33;;;;;;;4.57;0.68;;;;;;;;;;5061536;28;20401;-46
2022/02/02 12:01:21;;;;;;;5.78;1.10;;;;;;;;;;5062120;28;20023;-46
2022/02/02 12:04:11;;;;;;;4.00;1.25;;;;;;;;;;5077905;28;20456;-47
2022/02/02 12:06:55;;;;;;;7.43;1.67;;;;;;;;;;5060986;28;20068;-46
2022/02/02 12:09:35;;;;;;;5.75;1.73;;;;;;;;;;5064755;28;20159;-46
2022/02/02 12:45:14;;;;;;;4.40;1.05;;;;;;;;;;5063250;28;20048;-47
2022/02/02 12:47:51;;;;;;;3.58;0.63;;;;;;;;;;5061023;28;20461;-47
2022/02/02 12:53:36;;;;;;;1.60;0.68;;;;;;;;;;5069873;28;20044;-47
2022/02/02 12:56:22;;;;;;;6.10;1.15;;;;;;;;;;5060222;28;20052;-50
2022/02/02 12:58:50;;;;;;;1.42;0.68;;;;;;;;;;5067292;28;20036;-48
2022/02/02 13:01:19;;;;;;;3.03;0.57;;;;;;;;;;5064760;28;20412;-48
2022/02/02 13:03:46;;;;;;;2.53;0.73;;;;;;;;;;5065891;28;20028;-46
2022/02/02 13:06:15;;;;;;;2.00;0.30;;;;;;;;;;5067040;28;20047;-45
2022/02/02 13:08:42;;;;;;;3.50;0.70;;;;;;;;;;5065057;28;20481;-44
2022/02/02 13:11:08;;;;;;;2.20;0.30;;;;;;;;;;5060957;28;20480;-44
2022/02/02 13:13:34;;;;;;;2.75;0.60;;;;;;;;;;5067866;28;20032;-47
2022/02/02 13:16:19;;;;;;;1.45;0.43;;;;;;;;;;5058518;28;20107;-45
2022/02/02 13:18:49;;;;;;;2.47;0.40;;;;;;;;;;5071240;28;20078;-45
2022/02/02 13:21:23;;;;;;;2.38;0.85;;;;;;;;;;5065536;28;20028;-44
2022/02/02 13:26:44;;;;;;;2.83;0.88;;;;;;;;;;5063922;28;20809;-45
2022/02/02 13:29:25;;;;;;;4.20;1.02;;;;;;;;;;5058938;28;20029;-45
2022/02/02 13:32:31;;;;;;;1.77;0.60;;;;;;;;;;5065966;28;20033;-46
2022/02/02 13:35:05;;;;;;;6.13;1.00;;;;;;;;;;5061532;28;20384;-46
2022/02/02 13:37:47;;;;;;;1.92;0.95;;;;;;;;;;5066821;28;20036;-45
2022/02/02 13:43:01;;;;;;;4.03;0.73;;;;;;;;;;5059616;28;20105;-46
2022/02/02 13:56:16;;;;;;;2.53;0.98;;;;;;;;;;5061955;28;20024;-44
2022/02/02 14:04:11;;;;;;;3.95;0.70;;;;;;;;;;5064187;28;20487;-48
2022/02/02 14:09:16;;;;;;;1.77;0.77;;;;;;;;;;5065581;28;20530;-46
2022/02/02 14:31:13;;;;;;;2.05;0.85;;;;;;;;;;5070506;28;20043;-46
2022/02/02 14:33:40;;;;;;;10.38;1.52;;;;;;;;;;5074189;28;20027;-46
2022/02/02 14:36:09;;;;;;;4.63;0.63;;;;;;;;;;5073703;28;20032;-48
2022/02/02 14:38:47;;;;;;;8.63;1.33;;;;;;;;;;5070064;28;20461;-46
2022/02/02 14:41:20;;;;;;;3.17;0.88;;;;;;;;;;5070109;28;20032;-45
2022/02/02 14:43:57;;;;;;;5.60;1.10;;;;;;;;;;5061955;28;20040;-45
2022/02/02 14:46:32;;;;;;;4.43;0.93;;;;;;;;;;5063683;28;20032;-46
2022/02/02 14:49:06;;;;;;;6.57;1.25;;;;;;;;;;5072785;28;20571;-46
2022/02/02 14:51:54;;;;;;;3.05;1.10;;;;;;;;;;5073101;28;20393;-46
2022/02/02 14:54:43;;;;;;;4.18;0.95;;;;;;;;;;5073857;28;20024;-45
2022/02/02 15:05:52;;;;;;;10.13;1.95;;;;;;;;;;5073265;28;20427;-48
2022/02/02 15:27:27;;;;;;;5.85;0.90;;;;;;;;;;5073232;28;20503;-50
2022/02/02 15:32:19;;;;;;;2.63;1.00;;;;;;;;;;5072302;28;20388;-47
2022/02/02 15:34:52;;;;;;;4.80;1.40;;;;;;;;;;5062666;28;20364;-45
2022/02/02 15:39:58;;;;;;;6.55;1.17;;;;;;;;;;5063822;28;20127;-45
2022/02/02 15:54:44;;;;;;;8.25;1.40;;;;;;;;;;5077649;28;20169;-46
2022/02/02 15:59:08;;;;;;;4.57;1.13;;;;;;;;;;5061315;28;20511;-45
2022/02/02 16:02:08;;;;;;;5.47;1.20;;;;;;;;;;5062010;28;20043;-46
2022/02/02 16:04:36;;;;;;;2.58;0.82;;;;;;;;;;5069493;28;21689;-46
2022/02/02 16:07:05;;;;;;;5.53;1.25;;;;;;;;;;5057332;28;20021;-48
2022/02/02 16:09:44;;;;;;;9.13;1.40;;;;;;;;;;5066279;28;20027;-46
2022/02/02 16:12:20;;;;;;;4.68;0.88;;;;;;;;;;5067699;28;20048;-50
2022/02/02 16:14:51;;;;;;;4.90;1.50;;;;;;;;;;5060020;28;20457;-47
2022/02/02 16:36:57;;;;;;;7.53;1.15;;;;;;;;;;5072109;28;20044;-46
2022/02/02 16:39:25;;;;;;;7.82;1.08;;;;;;;;;;5066310;28;20037;-48
2022/02/02 16:44:36;;;;;;;2.25;1.05;;;;;;;;;;5071488;28;20428;-48
2022/02/02 16:47:02;;;;;;;7.15;1.65;;;;;;;;;;5071984;28;20116;-48
2022/02/02 16:49:28;;;;;;;8.05;1.00;;;;;;;;;;5068760;28;20100;-50
2022/02/02 16:51:54;;;;;;;1.92;1.17;;;;;;;;;;5066250;28;20437;-46
2022/02/02 16:54:29;;;;;;;3.97;1.60;;;;;;;;;;5070577;28;20036;-46
2022/02/02 17:32:43;;;;;;;5.78;1.60;;;;;;;;;;5065495;28;20112;-50
2022/02/02 17:35:32;;;;;;;5.10;1.33;;;;;;;;;;5069774;28;20372;-46
2022/02/02 17:38:06;;;;;;;4.40;1.20;;;;;;;;;;5071724;28;20119;-46
2022/02/02 18:13:47;;;;;;;5.25;1.55;;;;;;;;;;5070351;28;20044;-48
2022/02/02 18:17:04;;;;;;;8.93;1.65;;;;;;;;;;5064605;28;20029;-48
2022/02/02 18:19:00;;;;;;;3.63;1.33;;;;;;;;;;5061425;28;20040;-47
2022/02/02 18:21:28;;;;;;;8.27;1.23;;;;;;;;;;5062067;28;20071;-46
2022/02/02 18:24:13;;;;;;;6.30;1.20;;;;;;;;;;5067995;28;20027;-45
2022/02/02 18:26:53;;;;;;;7.15;1.23;;;;;;;;;;5074452;28;20033;-47
2022/02/02 18:29:28;;;;;;;4.10;1.00;;;;;;;;;;5063207;28;20454;-46
2022/02/02 18:32:12;;;;;;;6.82;0.77;;;;;;;;;;5058768;28;20052;-48
2022/02/02 18:34:48;;;;;;;2.95;1.40;;;;;;;;;;5062086;28;20103;-47
2022/02/02 18:41:46;;;;;;;10.23;1.13;;;;;;;;;;5005154;28;20038;-46
2022/02/02 18:44:21;;;;;;;;;;;;;;;;;;4994845;28;20041;-48
2022/02/02 18:49:04;;;;;;;5.05;1.00;;;;;;;;;;5071843;28;20172;-47
2022/02/02 18:54:44;;;;;;;8.35;1.33;;;;;;;;;;5070861;28;20217;-50
2022/02/02 18:57:18;;;;;;;4.43;1.35;;;;;;;;;;5063371;28;20060;-47
2022/02/02 19:00:05;;;;;;;4.03;0.93;;;;;;;;;;5056111;28;20436;-49
2022/02/02 19:05:25;;;;;;;5.53;1.75;;;;;;;;;;5068975;28;20047;-50
2022/02/02 19:38:13;;;;;;;7.40;1.23;;;;;;;;;;5069564;28;20047;-48
2022/02/02 19:55:17;;;;;;;3.17;0.98;;;;;;;;;;5066404;28;20094;-49
2022/02/02 20:03:13;;;;;;;1.77;0.88;;;;;;;;;;5070791;28;20510;-48
2022/02/02 20:05:48;;;;;;;4.38;0.80;;;;;;;;;;5060866;28;20078;-48
2022/02/02 20:13:16;;;;;;;2.95;1.00;;;;;;;;;;5070537;28;20540;-49
2022/02/02 20:15:42;;;;;;;4.32;0.77;;;;;;;;;;5069190;28;20024;-48
2022/02/02 20:18:09;;;;;;;10.93;1.10;;;;;;;;;;5062614;28;20036;-47
2022/02/02 20:20:40;;;;;;;3.97;0.85;;;;;;;;;;5072465;28;20808;-46
2022/02/02 20:23:07;;;;;;;4.35;0.80;;;;;;;;;;5062619;28;20509;-49
2022/02/02 20:25:35;;;;;;;6.60;1.25;;;;;;;;;;5061230;28;20128;-49
2022/02/02 20:28:09;;;;;;;2.50;0.90;;;;;;;;;;5063947;28;20028;-49
2022/02/02 20:30:36;;;;;;;2.67;0.90;;;;;;;;;;5066309;28;20017;-47
2022/02/02 20:33:03;;;;;;;3.45;0.95;;;;;;;;;;5069613;28;20044;-48
2022/02/02 20:35:29;;;;;;;7.55;1.10;;;;;;;;;;5057420;28;20013;-48
2022/02/02 20:37:55;;;;;;;4.78;1.40;;;;;;;;;;5059709;28;20043;-50
2022/02/02 20:40:23;;;;;;;2.10;1.23;;;;;;;;;;5068430;28;20086;-46
2022/02/02 21:13:40;;;;;;;6.40;0.88;;;;;;;;;;5067628;28;20067;-47
2022/02/02 21:14:46;;;;;;;6.53;2.03;;;;;;;;;;5059898;28;20045;-46
2022/02/02 21:17:21;;;;;;;5.72;1.50;;;;;;;;;;5072656;28;20463;-45
2022/02/02 21:20:12;;;;;;;4.15;1.05;;;;;;;;;;5071721;28;20043;-46
2022/02/02 21:22:49;;;;;;;9.50;1.67;;;;;;;;;;5068473;28;20447;-48
2022/02/02 21:25:35;;;;;;;9.43;1.55;;;;;;;;;;5071827;28;20409;-48
2022/02/02 21:28:02;;;;;;;5.22;1.13;;;;;;;;;;5066445;28;20029;-48
2022/02/02 21:30:29;;;;;;;9.52;1.50;;;;;;;;;;5068071;28;20036;-47
2022/02/02 21:32:55;;;;;;;9.95;1.60;;;;;;;;;;5060973;28;20021;-46
2022/02/02 21:35:22;;;;;;;3.72;1.10;;;;;;;;;;5068207;28;20032;-47
2022/02/02 21:37:51;;;;;;;6.10;1.30;;;;;;;;;;5064089;28;20384;-45
2022/02/02 21:40:24;;;;;;;12.80;1.98;;;;;;;;;;5065878;28;20066;-46
2022/02/02 21:42:51;;;;;;;5.88;1.15;;;;;;;;;;5063490;28;20075;-47
2022/02/02 21:45:18;;;;;;;4.80;0.90;;;;;;;;;;5071095;28;20024;-50
2022/02/02 21:47:44;;;;;;;3.75;1.08;;;;;;;;;;5069873;28;20032;-46
2022/02/02 21:50:15;;;;;;;6.95;1.23;;;;;;;;;;5070076;28;20078;-46
2022/02/02 21:52:41;;;;;;;5.78;1.75;;;;;;;;;;5069933;28;20084;-47
2022/02/02 21:55:07;;;;;;;5.70;1.40;;;;;;;;;;5070758;28;20111;-47
2022/02/02 21:57:33;;;;;;;10.40;2.00;;;;;;;;;;5071013;28;20068;-46
2022/02/02 22:00:00;;;;;;;2.67;1.33;;;;;;;;;;5062594;28;20029;-48
2022/02/02 22:02:28;;;;;;;1.95;1.10;;;;;;;;;;5075180;28;20024;-49
2022/02/02 22:04:54;;;;;;;7.63;1.42;;;;;;;;;;5074230;28;20111;-45
2022/02/02 22:07:20;;;;;;;7.25;1.58;;;;;;;;;;5069239;28;20037;-46
2022/02/02 22:09:49;;;;;;;3.38;1.15;;;;;;;;;;5069861;28;20070;-46
2022/02/02 22:12:15;;;;;;;4.93;1.25;;;;;;;;;;5073633;28;20033;-48
2022/02/02 22:14:44;;;;;;;3.10;0.98;;;;;;;;;;5075003;28;20025;-50
2022/02/02 22:17:10;;;;;;;5.72;1.40;;;;;;;;;;5066553;28;20426;-49
2022/02/02 22:19:37;;;;;;;2.97;0.90;;;;;;;;;;5060455;28;20036;-50
2022/02/02 22:22:03;;;;;;;4.85;1.20;;;;;;;;;;5070796;28;20500;-48
2022/02/02 22:24:29;;;;;;;7.65;1.15;;;;;;;;;;5070810;28;20032;-46
2022/02/02 22:26:55;;;;;;;10.65;2.10;;;;;;;;;;5063721;28;20039;-45
2022/02/02 22:29:21;;;;;;;2.58;1.38;;;;;;;;;;5062340;28;20033;-48
2022/02/02 22:31:47;;;;;;;5.13;1.05;;;;;;;;;;5065082;28;20043;-49
2022/02/02 22:34:13;;;;;;;4.82;1.58;;;;;;;;;;5073973;28;20033;-47
2022/02/02 22:36:39;;;;;;;7.47;1.25;;;;;;;;;;5062519;28;20108;-48
2022/02/02 22:39:08;;;;;;;5.88;1.63;;;;;;;;;;5071525;28;20112;-51
2022/02/02 22:41:34;;;;;;;8.57;1.40;;;;;;;;;;5061598;28;20504;-46
2022/02/02 22:44:07;;;;;;;8.57;1.60;;;;;;;;;;5062254;28;20032;-48
2022/02/02 22:46:34;;;;;;;8.60;2.33;;;;;;;;;;5064428;28;20075;-46
2022/02/02 22:49:00;;;;;;;5.35;1.00;;;;;;;;;;5068798;28;20050;-48
2022/02/02 22:51:29;;;;;;;5.43;1.30;;;;;;;;;;5060137;28;20036;-46
2022/02/02 22:53:56;;;;;;;11.35;1.60;;;;;;;;;;5059132;28;20032;-46
2022/02/02 22:56:22;;;;;;;9.20;1.55;;;;;;;;;;5069667;28;20028;-46
2022/02/02 22:58:49;;;;;;;9.23;1.63;;;;;;;;;;5064582;28;20039;-46
2022/02/02 23:01:16;;;;;;;6.88;1.10;;;;;;;;;;5061034;28;20137;-46
2022/02/02 23:03:42;;;;;;;9.00;1.35;;;;;;;;;;5063088;28;20474;-48
2022/02/02 23:06:08;;;;;;;11.85;1.63;;;;;;;;;;5064100;28;20060;-50
2022/02/02 23:08:35;;;;;;;16.30;2.03;;;;;;;;;;5072560;28;20028;-48
2022/02/02 23:11:01;;;;;;;9.40;1.77;;;;;;;;;;5073116;28;20440;-46
2022/02/02 23:13:30;;;;;;;9.45;1.35;;;;;;;;;;5067115;28;20453;-46
2022/02/02 23:16:03;;;;;;;6.82;1.42;;;;;;;;;;5071348;28;20074;-48
2022/02/02 23:18:33;;;;;;;11.48;2.00;;;;;;;;;;5066668;28;20091;-50
2022/02/02 23:21:02;;;;;;;6.80;2.13;;;;;;;;;;5066697;28;20025;-46
2022/02/02 23:23:32;;;;;;;7.13;1.40;;;;;;;;;;5072470;28;20033;-46
2022/02/02 23:26:03;;;;;;;5.88;1.88;;;;;;;;;;5054785;28;20132;-47
2022/02/02 23:28:32;;;;;;;10.45;1.90;;;;;;;;;;5065448;28;20021;-46
2022/02/02 23:31:02;;;;;;;11.88;2.05;;;;;;;;;;5065895;28;20033;-50
2022/02/02 23:33:29;;;;;;;5.97;1.80;;;;;;;;;;5069159;28;20029;-46
2022/02/02 23:35:55;;;;;;;4.55;1.80;;;;;;;;;;5072927;28;20533;-50
2022/02/02 23:38:21;;;;;;;4.53;1.20;;;;;;;;;;5072167;28;20024;-48
2022/02/02 23:43:20;;;;;;;8.32;1.83;;;;;;;;;;5070588;28;20121;-47
2022/02/02 23:45:50;;;;;;;3.38;1.27;;;;;;;;;;5070149;28;20445;-46
2022/02/02 23:48:16;;;;;;;9.27;1.40;;;;;;;;;;5067303;28;20120;-47
2022/02/02 23:50:42;;;;;;;11.57;2.15;;;;;;;;;;5069444;28;20104;-46
2022/02/02 23:53:08;;;;;;;8.27;2.35;;;;;;;;;;5059778;28;20504;-46
2022/02/02 23:55:39;;;;;;;9.63;2.05;;;;;;;;;;5059979;28;20763;-47
2022/02/02 23:58:12;;;;;;;5.85;1.52;;;;;;;;;;5065425;28;20451;-47
